createdAt,value
2022-09-20T00:00:06.096Z,2.00
2022-09-20T00:03:28.212Z,2.28
2022-09-20T00:06:32.005Z,1.50
2022-09-20T00:09:34.078Z,1.50
2022-09-20T00:12:36.401Z,2.13
2022-09-20T00:15:43.732Z,2.47
2022-09-20T00:18:54.382Z,2.85
2022-09-20T00:21:56.364Z,3.10
2022-09-20T00:24:58.680Z,4.68
2022-09-20T00:28:01.466Z,2.25
2022-09-20T00:31:03.928Z,2.83
2022-09-20T00:34:24.601Z,2.97
2022-09-20T00:37:26.826Z,1.15
2022-09-20T00:40:29.308Z,2.38
2022-09-20T00:43:38.023Z,2.70
2022-09-20T00:46:45.080Z,4.70
2022-09-20T00:49:49.756Z,1.58
2022-09-20T00:52:58.372Z,2.47
2022-09-20T00:56:20.902Z,1.60
2022-09-20T00:59:32.386Z,3.95
2022-09-20T01:02:40.257Z,3.13
2022-09-20T01:05:43.974Z,3.00
2022-09-20T01:08:50.971Z,3.53
2022-09-20T01:11:56.084Z,2.13
2022-09-20T01:15:00.665Z,2.58
2022-09-20T01:18:06.686Z,3.03
2022-09-20T01:21:11.215Z,5.13
2022-09-20T01:24:13.219Z,3.28
2022-09-20T01:27:40.240Z,4.38
2022-09-20T01:30:47.935Z,2.20
2022-09-20T01:34:18.507Z,2.33
2022-09-20T01:37:24.862Z,1.63
2022-09-20T01:41:05.325Z,2.40
2022-09-20T01:44:26.022Z,1.52
2022-09-20T01:47:44.647Z,3.55
2022-09-20T01:51:11.640Z,2.10
2022-09-20T01:54:16.609Z,2.17
2022-09-20T01:57:27.348Z,2.92
2022-09-20T02:00:48.033Z,1.65
2022-09-20T02:04:11.705Z,2.25
2022-09-20T02:07:42.218Z,1.20
2022-09-20T02:11:14.760Z,3.42
2022-09-20T02:14:32.979Z,1.27
2022-09-20T02:18:03.501Z,1.58
2022-09-20T02:21:26.046Z,1.02
2022-09-20T02:24:46.577Z,2.85
2022-09-20T02:27:59.766Z,1.23
2022-09-20T02:31:40.336Z,0.88
2022-09-20T02:35:15.184Z,1.40
2022-09-20T02:38:44.584Z,1.27
2022-09-20T02:41:57.023Z,4.30
2022-09-20T02:45:05.190Z,2.05
2022-09-20T02:48:08.015Z,1.70
2022-09-20T02:51:28.894Z,1.92
2022-09-20T02:54:49.961Z,1.65
2022-09-20T02:58:23.211Z,0.68
2022-09-20T03:01:25.637Z,1.38
2022-09-20T03:04:56.537Z,0.85
2022-09-20T03:08:04.909Z,1.88
2022-09-20T03:11:23.186Z,1.23
2022-09-20T03:14:40.311Z,2.40
2022-09-20T03:18:00.710Z,2.90
2022-09-20T03:21:09.772Z,1.77
2022-09-20T03:24:28.581Z,1.48
2022-09-20T03:27:55.963Z,0.73
2022-09-20T03:31:17.719Z,2.13
2022-09-20T03:34:30.130Z,2.05
2022-09-20T03:37:41.149Z,1.10
2022-09-20T03:40:56.428Z,1.42
2022-09-20T03:43:58.701Z,0.70
2022-09-20T03:47:20.102Z,0.93
2022-09-20T03:50:55.535Z,4.68
2022-09-20T03:54:20.992Z,5.30
2022-09-20T03:57:41.038Z,4.00
2022-09-20T04:01:04.345Z,2.65
2022-09-20T04:04:37.679Z,4.25
2022-09-20T04:08:01.289Z,2.15
2022-09-20T04:11:16.215Z,1.05
2022-09-20T04:15:17.752Z,1.23
2022-09-20T04:18:53.313Z,0.95
2022-09-20T04:22:00.276Z,1.48
2022-09-20T04:25:14.658Z,1.00
2022-09-20T04:28:32.807Z,2.50
2022-09-20T04:31:54.259Z,2.25
2022-09-20T04:35:33.252Z,1.88
2022-09-20T04:38:35.865Z,2.08
2022-09-20T04:42:23.408Z,1.58
2022-09-20T04:45:43.711Z,2.15
2022-09-20T04:49:17.075Z,3.88
2022-09-20T04:52:38.805Z,0.28
2022-09-20T04:56:22.952Z,1.52
2022-09-20T04:59:57.778Z,1.15
2022-09-20T05:03:42.143Z,1.55
2022-09-20T05:07:38.817Z,1.52
2022-09-20T05:11:19.658Z,0.75
2022-09-20T05:15:08.737Z,2.80
2022-09-20T05:18:36.444Z,1.58
2022-09-20T05:21:41.804Z,1.10
2022-09-20T05:25:07.285Z,1.33
2022-09-20T05:28:26.351Z,1.15
2022-09-20T05:32:09.228Z,1.42
2022-09-20T05:35:49.563Z,2.22
2022-09-20T05:39:03.697Z,2.17
2022-09-20T05:42:18.226Z,3.13
2022-09-20T05:45:53.308Z,7.47
2022-09-20T05:49:10.916Z,5.70
2022-09-20T05:52:25.274Z,5.18
2022-09-20T05:55:54.888Z,6.75
2022-09-20T05:59:22.587Z,3.80
2022-09-20T06:02:35.448Z,1.27
2022-09-20T06:06:01.998Z,1.95
2022-09-20T06:09:06.594Z,1.23
2022-09-20T06:12:25.039Z,3.08
2022-09-20T06:15:36.330Z,3.90
2022-09-20T06:18:41.874Z,2.15
2022-09-20T06:21:51.368Z,6.50
2022-09-20T06:25:02.111Z,2.47
2022-09-20T06:28:21.461Z,5.93
2022-09-20T06:31:23.960Z,4.00
2022-09-20T06:34:27.764Z,2.53
2022-09-20T06:38:10.723Z,4.65
2022-09-20T06:41:30.110Z,4.90
2022-09-20T06:44:33.543Z,4.72
2022-09-20T06:47:38.762Z,11.02
2022-09-20T06:50:45.497Z,12.23
2022-09-20T06:53:47.515Z,5.38
2022-09-20T06:56:50.805Z,2.53
2022-09-20T06:59:53.060Z,4.82
2022-09-20T07:02:56.971Z,5.97
2022-09-20T07:06:02.680Z,4.40
2022-09-20T07:09:06.309Z,4.63
2022-09-20T07:12:10.859Z,4.85
2022-09-20T07:15:17.114Z,6.13
2022-09-20T07:18:19.683Z,4.28
2022-09-20T07:21:22.168Z,2.80
2022-09-20T07:24:24.498Z,10.15
2022-09-20T07:27:29.299Z,4.50
2022-09-20T07:33:34.106Z,2.58
2022-09-20T07:36:36.024Z,6.43
2022-09-20T07:39:38.637Z,2.58
2022-09-20T07:42:41.742Z,1.98
2022-09-20T07:45:44.565Z,5.68
2022-09-20T07:48:47.074Z,4.53
2022-09-20T07:51:50.462Z,2.58
2022-09-20T07:54:52.528Z,2.05
2022-09-20T07:57:56.083Z,1.58
2022-09-20T08:01:01.333Z,3.30
2022-09-20T08:04:10.179Z,3.10
2022-09-20T08:07:13.067Z,1.48
2022-09-20T08:10:15.343Z,4.43
2022-09-20T08:16:52.372Z,5.00
2022-09-20T08:19:54.677Z,5.17
2022-09-20T08:23:21.907Z,2.30
2022-09-20T08:26:24.827Z,3.03
2022-09-20T08:29:30.191Z,4.93
2022-09-20T08:32:33.343Z,4.10
2022-09-20T08:35:38.182Z,3.28
2022-09-20T08:42:28.026Z,5.65
2022-09-20T08:45:37.486Z,3.85
2022-09-20T08:48:40.156Z,5.00
2022-09-20T08:51:50.818Z,4.40
2022-09-20T08:54:53.400Z,3.08
2022-09-20T08:57:58.429Z,3.60
2022-09-20T09:01:00.743Z,1.15
2022-09-20T09:04:14.601Z,4.60
2022-09-20T09:07:21.923Z,1.95
2022-09-20T09:10:24.487Z,2.28
2022-09-20T09:14:27.732Z,2.33
2022-09-20T09:17:31.131Z,3.10
2022-09-20T09:20:42.570Z,2.67
2022-09-20T09:24:06.319Z,2.35
2022-09-20T09:27:19.493Z,1.53
2022-09-20T09:30:44.465Z,4.13
2022-09-20T09:33:47.469Z,1.52
2022-09-20T09:36:49.550Z,3.80
2022-09-20T09:40:17.079Z,5.95
2022-09-20T09:43:29.374Z,2.83
2022-09-20T09:46:34.766Z,3.63
2022-09-20T09:49:37.703Z,2.90
2022-09-20T09:52:40.757Z,2.67
2022-09-20T09:56:01.318Z,7.70
2022-09-20T09:59:15.908Z,6.45
2022-09-20T10:02:24.270Z,4.38
2022-09-20T10:05:54.505Z,1.92
2022-09-20T10:09:18.175Z,4.40
2022-09-20T10:12:34.175Z,3.40
2022-09-20T10:15:57.810Z,4.78
2022-09-20T10:19:35.589Z,3.72
2022-09-20T10:25:55.620Z,5.50
2022-09-20T10:29:06.757Z,4.57
2022-09-20T10:32:20.494Z,2.70
2022-09-20T10:35:46.006Z,10.48
2022-09-20T10:39:14.566Z,5.15
2022-09-20T10:42:58.199Z,4.68
2022-09-20T10:46:33.026Z,5.15
2022-09-20T10:49:50.759Z,4.80
2022-09-20T10:53:12.189Z,4.03
2022-09-20T10:56:20.968Z,7.63
2022-09-20T10:59:38.359Z,3.03
2022-09-20T11:02:59.963Z,3.67
2022-09-20T11:06:39.298Z,5.47
2022-09-20T11:09:52.093Z,4.95
2022-09-20T11:13:11.010Z,2.50
2022-09-20T11:16:25.218Z,5.15
2022-09-20T11:20:13.377Z,3.10
2022-09-20T11:23:25.515Z,3.55
2022-09-20T11:26:35.633Z,3.30
2022-09-20T11:29:52.762Z,4.10
2022-09-20T11:33:03.874Z,4.57
2022-09-20T11:36:15.277Z,5.28
2022-09-20T11:39:44.520Z,0.70
2022-09-20T11:42:48.358Z,3.38
2022-09-20T11:45:55.615Z,3.03
2022-09-20T11:49:16.539Z,7.20
2022-09-20T11:52:24.804Z,8.70
2022-09-20T11:56:01.882Z,2.83
2022-09-20T11:59:33.956Z,4.05
2022-09-20T12:02:53.167Z,4.20
2022-09-20T12:06:04.646Z,3.40
2022-09-20T12:09:25.264Z,3.30
2022-09-20T12:12:31.117Z,2.13
2022-09-20T12:15:36.914Z,2.55
2022-09-20T12:18:47.368Z,1.90
2022-09-20T12:22:01.973Z,4.78
2022-09-20T12:28:41.295Z,2.85
2022-09-20T12:31:50.375Z,1.85
2022-09-20T12:34:52.767Z,7.20
2022-09-20T12:37:55.910Z,2.58
2022-09-20T12:41:10.236Z,3.15
2022-09-20T12:44:51.066Z,4.30
2022-09-20T12:47:56.038Z,2.35
2022-09-20T12:51:36.345Z,4.65
2022-09-20T12:54:52.589Z,3.72
2022-09-20T12:57:58.678Z,3.22
2022-09-20T13:01:04.038Z,4.13
2022-09-20T13:04:53.966Z,4.63
2022-09-20T13:08:03.346Z,5.32
2022-09-20T13:11:17.895Z,2.97
2022-09-20T13:14:32.559Z,3.07
2022-09-20T13:17:38.235Z,3.33
2022-09-20T13:20:42.871Z,7.40
2022-09-20T13:23:51.079Z,3.88
2022-09-20T13:26:56.764Z,4.10
2022-09-20T13:30:17.866Z,2.97
2022-09-20T13:33:24.345Z,2.60
2022-09-20T13:36:30.100Z,6.22
2022-09-20T13:39:37.430Z,2.03
2022-09-20T13:42:40.272Z,2.40
2022-09-20T13:45:44.056Z,2.83
2022-09-20T13:48:48.752Z,4.00
2022-09-20T13:51:51.361Z,6.78
2022-09-20T13:54:55.595Z,0.70
2022-09-20T13:58:05.567Z,4.35
2022-09-20T14:01:34.626Z,3.20
2022-09-20T14:04:41.613Z,4.80
2022-09-20T14:07:48.608Z,2.67
2022-09-20T14:11:10.025Z,1.05
2022-09-20T14:14:19.975Z,2.90
2022-09-20T14:17:28.787Z,3.88
2022-09-20T14:20:33.645Z,3.30
2022-09-20T14:23:54.688Z,9.50
2022-09-20T14:27:07.984Z,4.32
2022-09-20T14:30:35.298Z,5.05
2022-09-20T14:33:43.975Z,3.83
2022-09-20T14:36:50.085Z,3.53
2022-09-20T14:40:02.348Z,5.35
2022-09-20T14:43:06.183Z,5.25
2022-09-20T14:46:17.258Z,1.58
2022-09-20T14:49:34.156Z,1.52
2022-09-20T14:52:41.146Z,4.80
2022-09-20T14:56:07.539Z,4.55
2022-09-20T15:02:16.681Z,3.95
2022-09-20T15:05:21.231Z,6.55
2022-09-20T15:08:24.127Z,4.18
2022-09-20T15:11:31.408Z,4.50
2022-09-20T15:14:38.046Z,3.28
2022-09-20T15:17:44.043Z,6.20
2022-09-20T15:20:49.538Z,4.00
2022-09-20T15:23:53.637Z,4.07
2022-09-20T15:30:14.295Z,4.13
2022-09-20T15:33:20.945Z,4.68
2022-09-20T15:36:25.774Z,3.03
2022-09-20T15:39:31.449Z,5.43
2022-09-20T15:42:43.226Z,8.32
2022-09-20T15:46:00.655Z,5.75
2022-09-20T15:49:07.888Z,6.93
2022-09-20T15:52:12.944Z,7.00
2022-09-20T15:55:19.820Z,4.35
2022-09-20T15:58:24.524Z,3.58
2022-09-20T16:01:30.044Z,4.63
2022-09-20T16:04:35.500Z,2.97
2022-09-20T16:07:42.033Z,7.43
2022-09-20T16:10:44.645Z,6.70
2022-09-20T16:13:56.080Z,4.95
2022-09-20T16:17:00.921Z,5.57
2022-09-20T16:20:06.863Z,2.22
2022-09-20T16:23:10.841Z,3.83
2022-09-20T16:26:15.902Z,1.20
2022-09-20T16:29:25.187Z,1.70
2022-09-20T16:32:30.360Z,1.13
2022-09-20T16:35:34.776Z,7.07
2022-09-20T16:38:42.844Z,2.25
2022-09-20T16:41:49.717Z,6.47
2022-09-20T16:44:52.530Z,2.25
2022-09-20T16:47:59.280Z,4.15
2022-09-20T16:51:03.122Z,2.80
2022-09-20T16:54:16.060Z,3.30
2022-09-20T16:57:22.699Z,2.22
2022-09-20T17:00:26.799Z,2.47
2022-09-20T17:03:32.503Z,2.28
2022-09-20T17:06:37.415Z,4.40
2022-09-20T17:09:40.268Z,5.55
2022-09-20T17:12:43.944Z,3.40
2022-09-20T17:18:55.575Z,2.33
2022-09-20T17:21:57.769Z,1.70
2022-09-20T17:25:00.277Z,4.28
2022-09-20T17:28:02.768Z,3.83
2022-09-20T17:31:06.952Z,8.00
2022-09-20T17:34:11.777Z,3.97
2022-09-20T17:37:14.055Z,3.78
2022-09-20T17:40:17.024Z,4.78
2022-09-20T17:43:19.747Z,4.75
2022-09-20T17:46:35.896Z,4.47
2022-09-20T17:49:41.419Z,3.25
2022-09-20T17:52:45.845Z,4.43
2022-09-20T17:55:58.802Z,4.80
2022-09-20T17:59:06.398Z,3.55
2022-09-20T18:02:11.938Z,3.38
2022-09-20T18:05:15.060Z,6.57
2022-09-20T18:08:20.207Z,6.90
2022-09-20T18:11:28.175Z,6.47
2022-09-20T18:14:33.865Z,5.43
2022-09-20T18:17:37.931Z,11.50
2022-09-20T18:20:41.014Z,6.65
2022-09-20T18:23:48.825Z,14.82
2022-09-20T18:26:52.516Z,16.75
2022-09-20T18:29:55.724Z,11.38
2022-09-20T18:33:00.034Z,11.25
2022-09-20T18:36:05.831Z,10.15
2022-09-20T18:39:08.910Z,22.00
2022-09-20T18:42:12.551Z,10.82
2022-09-20T18:45:20.327Z,16.25
2022-09-20T18:48:27.999Z,31.80
2022-09-20T18:51:35.862Z,16.83
2022-09-20T18:54:42.204Z,20.33
2022-09-20T18:57:46.988Z,12.35
2022-09-20T19:01:06.975Z,15.43
2022-09-20T19:04:28.345Z,16.00
2022-09-20T19:07:55.169Z,14.07
2022-09-20T19:11:08.170Z,21.85
2022-09-20T19:14:52.218Z,14.90
2022-09-20T19:21:17.786Z,25.58
2022-09-20T19:24:35.288Z,13.18
2022-09-20T19:27:41.691Z,23.67
2022-09-20T19:30:46.131Z,17.45
2022-09-20T19:33:51.305Z,12.57
2022-09-20T19:37:05.576Z,15.60
2022-09-20T19:40:31.554Z,12.50
2022-09-20T19:46:47.950Z,8.07
2022-09-20T19:49:55.769Z,11.95
2022-09-20T19:52:59.008Z,9.30
2022-09-20T19:56:27.045Z,10.30
2022-09-20T19:59:35.328Z,11.57
2022-09-20T20:02:41.683Z,14.20
2022-09-20T20:06:08.259Z,8.27
2022-09-20T20:09:34.884Z,9.77
2022-09-20T20:13:39.191Z,9.30
2022-09-20T20:17:11.832Z,8.75
2022-09-20T20:24:12.713Z,8.10
2022-09-20T20:27:16.333Z,7.63
2022-09-20T20:30:20.930Z,7.35
2022-09-20T20:33:24.287Z,5.90
2022-09-20T20:36:28.715Z,8.35
2022-09-20T20:39:32.930Z,6.65
2022-09-20T20:42:37.356Z,5.50
2022-09-20T20:45:50.824Z,7.50
2022-09-20T20:48:53.728Z,5.53
2022-09-20T20:51:58.323Z,8.02
2022-09-20T20:55:02.285Z,4.78
2022-09-20T20:58:09.153Z,5.88
2022-09-20T21:01:29.084Z,5.78
2022-09-20T21:04:33.579Z,8.82
2022-09-20T21:07:36.571Z,7.93
2022-09-20T21:10:40.152Z,8.40
2022-09-20T21:13:43.151Z,5.28
2022-09-20T21:16:47.033Z,6.67
2022-09-20T21:19:50.147Z,4.67
2022-09-20T21:22:55.411Z,4.60
2022-09-20T21:26:07.977Z,8.40
2022-09-20T21:29:12.212Z,6.65
2022-09-20T21:32:14.385Z,4.53
2022-09-20T21:35:17.721Z,7.82
2022-09-20T21:38:20.336Z,7.82
2022-09-20T21:41:29.612Z,5.18
2022-09-20T21:44:32.637Z,7.50
2022-09-20T21:47:35.333Z,6.80
2022-09-20T21:50:37.798Z,6.88
2022-09-20T21:53:41.670Z,7.72
2022-09-20T21:56:43.931Z,4.40
2022-09-20T21:59:46.229Z,4.10
2022-09-20T22:02:48.663Z,7.88
2022-09-20T22:05:51.523Z,6.05
2022-09-20T22:08:58.814Z,10.43
2022-09-20T22:12:02.061Z,3.53
2022-09-20T22:15:04.531Z,3.70
2022-09-20T22:18:07.083Z,4.20
2022-09-20T22:21:17.912Z,5.53
2022-09-20T22:24:20.284Z,4.25
2022-09-20T22:27:22.368Z,8.63
2022-09-20T22:30:24.970Z,5.05
2022-09-20T22:33:27.320Z,3.55
2022-09-20T22:36:35.868Z,4.47
2022-09-20T22:39:38.334Z,3.85
2022-09-20T22:42:40.502Z,2.88
2022-09-20T22:45:42.718Z,8.00
2022-09-20T22:48:46.101Z,4.95
2022-09-20T22:51:48.800Z,7.05
2022-09-20T22:54:51.204Z,5.88
2022-09-20T22:57:53.454Z,4.57
2022-09-20T23:00:56.501Z,3.53
2022-09-20T23:04:01.977Z,3.75
2022-09-20T23:07:04.953Z,2.35
2022-09-20T23:10:07.937Z,3.70
2022-09-20T23:13:10.364Z,3.22
2022-09-20T23:16:15.926Z,5.38
2022-09-20T23:19:18.924Z,6.13
2022-09-20T23:22:20.957Z,5.97
2022-09-20T23:25:23.611Z,6.25
2022-09-20T23:28:27.544Z,2.92
2022-09-20T23:31:32.113Z,4.85
2022-09-20T23:34:34.320Z,2.47
2022-09-20T23:37:36.852Z,6.15
2022-09-20T23:40:39.150Z,3.33
2022-09-20T23:43:43.135Z,4.78
2022-09-20T23:46:45.460Z,3.33
2022-09-20T23:49:48.555Z,4.15
2022-09-20T23:52:50.579Z,3.25
2022-09-20T23:55:53.941Z,3.15
2022-09-20T23:58:56.009Z,3.33
